sensor_id;sensor_type;location;lat;lon;timestamp;P1;durP1;ratioP1;P2;durP2;ratioP2
30519;SDS011;17300;50.374;8.006;2022-07-23T00:01:53;5.07;;;4.60;;
30519;SDS011;17300;50.374;8.006;2022-07-23T00:04:19;5.13;;;4.73;;
30519;SDS011;17300;50.374;8.006;2022-07-23T00:06:46;4.63;;;4.27;;
30519;SDS011;17300;50.374;8.006;2022-07-23T00:09:13;5.05;;;4.68;;
30519;SDS011;17300;50.374;8.006;2022-07-23T00:11:39;5.05;;;4.65;;
30519;SDS011;17300;50.374;8.006;2022-07-23T00:14:07;5.60;;;5.20;;
30519;SDS011;17300;50.374;8.006;2022-07-23T00:16:34;4.70;;;4.40;;
30519;SDS011;17300;50.374;8.006;2022-07-23T00:19:02;5.77;;;5.27;;
30519;SDS011;17300;50.374;8.006;2022-07-23T00:21:29;4.93;;;4.60;;
30519;SDS011;17300;50.374;8.006;2022-07-23T00:23:55;5.23;;;4.83;;
30519;SDS011;17300;50.374;8.006;2022-07-23T00:26:22;5.13;;;4.73;;
30519;SDS011;17300;50.374;8.006;2022-07-23T00:28:49;5.50;;;5.10;;
30519;SDS011;17300;50.374;8.006;2022-07-23T00:31:17;5.10;;;4.70;;
30519;SDS011;17300;50.374;8.006;2022-07-23T00:33:44;5.30;;;4.90;;
30519;SDS011;17300;50.374;8.006;2022-07-23T00:36:11;4.93;;;4.53;;
30519;SDS011;17300;50.374;8.006;2022-07-23T00:38:38;5.67;;;5.20;;
30519;SDS011;17300;50.374;8.006;2022-07-23T00:41:04;4.80;;;4.50;;
30519;SDS011;17300;50.374;8.006;2022-07-23T00:43:31;5.50;;;5.10;;
30519;SDS011;17300;50.374;8.006;2022-07-23T00:45:58;5.40;;;4.90;;
30519;SDS011;17300;50.374;8.006;2022-07-23T00:48:26;5.10;;;4.70;;
30519;SDS011;17300;50.374;8.006;2022-07-23T00:50:53;5.30;;;4.90;;
30519;SDS011;17300;50.374;8.006;2022-07-23T00:53:19;5.37;;;4.97;;
30519;SDS011;17300;50.374;8.006;2022-07-23T00:55:46;5.97;;;5.47;;
30519;SDS011;17300;50.374;8.006;2022-07-23T00:58:14;5.43;;;5.03;;
30519;SDS011;17300;50.374;8.006;2022-07-23T01:00:42;5.30;;;5.00;;
30519;SDS011;17300;50.374;8.006;2022-07-23T01:03:08;5.67;;;5.27;;
30519;SDS011;17300;50.374;8.006;2022-07-23T01:05:37;5.07;;;4.67;;
30519;SDS011;17300;50.374;8.006;2022-07-23T01:08:05;5.13;;;4.73;;
30519;SDS011;17300;50.374;8.006;2022-07-23T01:10:32;5.33;;;4.93;;
30519;SDS011;17300;50.374;8.006;2022-07-23T01:13:00;5.43;;;4.90;;
30519;SDS011;17300;50.374;8.006;2022-07-23T01:15:28;5.40;;;4.90;;
30519;SDS011;17300;50.374;8.006;2022-07-23T01:17:55;5.50;;;5.00;;
30519;SDS011;17300;50.374;8.006;2022-07-23T01:20:22;5.40;;;5.00;;
30519;SDS011;17300;50.374;8.006;2022-07-23T01:22:51;5.57;;;5.17;;
30519;SDS011;17300;50.374;8.006;2022-07-23T01:25:18;6.00;;;5.50;;
30519;SDS011;17300;50.374;8.006;2022-07-23T01:27:45;5.47;;;5.00;;
30519;SDS011;17300;50.374;8.006;2022-07-23T01:30:12;6.13;;;5.57;;
30519;SDS011;17300;50.374;8.006;2022-07-23T01:32:39;5.83;;;5.43;;
30519;SDS011;17300;50.374;8.006;2022-07-23T01:35:07;5.83;;;5.43;;
30519;SDS011;17300;50.374;8.006;2022-07-23T01:37:34;6.23;;;5.73;;
30519;SDS011;17300;50.374;8.006;2022-07-23T01:40:02;5.90;;;5.50;;
30519;SDS011;17300;50.374;8.006;2022-07-23T01:42:30;6.03;;;5.57;;
30519;SDS011;17300;50.374;8.006;2022-07-23T01:44:57;5.57;;;5.17;;
30519;SDS011;17300;50.374;8.006;2022-07-23T01:47:24;5.77;;;5.37;;
30519;SDS011;17300;50.374;8.006;2022-07-23T01:49:52;6.00;;;5.60;;
30519;SDS011;17300;50.374;8.006;2022-07-23T01:52:18;6.33;;;5.73;;
30519;SDS011;17300;50.374;8.006;2022-07-23T01:54:45;6.27;;;5.77;;
30519;SDS011;17300;50.374;8.006;2022-07-23T01:57:13;6.33;;;5.83;;
30519;SDS011;17300;50.374;8.006;2022-07-23T01:59:40;6.37;;;5.80;;
30519;SDS011;17300;50.374;8.006;2022-07-23T02:02:07;6.33;;;5.80;;
30519;SDS011;17300;50.374;8.006;2022-07-23T02:04:34;6.83;;;6.23;;
30519;SDS011;17300;50.374;8.006;2022-07-23T02:07:01;6.17;;;5.63;;
30519;SDS011;17300;50.374;8.006;2022-07-23T02:09:28;6.50;;;5.97;;
30519;SDS011;17300;50.374;8.006;2022-07-23T02:11:56;6.10;;;5.60;;
30519;SDS011;17300;50.374;8.006;2022-07-23T02:14:24;6.87;;;6.30;;
30519;SDS011;17300;50.374;8.006;2022-07-23T02:16:51;6.30;;;5.80;;
30519;SDS011;17300;50.374;8.006;2022-07-23T02:19:18;6.47;;;5.97;;
30519;SDS011;17300;50.374;8.006;2022-07-23T02:21:44;6.63;;;6.13;;
30519;SDS011;17300;50.374;8.006;2022-07-23T02:24:11;6.63;;;6.13;;
30519;SDS011;17300;50.374;8.006;2022-07-23T02:26:38;5.97;;;5.47;;
30519;SDS011;17300;50.374;8.006;2022-07-23T02:29:04;6.30;;;5.80;;
30519;SDS011;17300;50.374;8.006;2022-07-23T02:31:33;5.67;;;5.27;;
30519;SDS011;17300;50.374;8.006;2022-07-23T02:34:00;6.40;;;5.90;;
30519;SDS011;17300;50.374;8.006;2022-07-23T02:36:28;6.97;;;6.37;;
30519;SDS011;17300;50.374;8.006;2022-07-23T02:38:55;6.40;;;5.90;;
30519;SDS011;17300;50.374;8.006;2022-07-23T02:41:22;6.77;;;6.17;;
30519;SDS011;17300;50.374;8.006;2022-07-23T02:43:49;6.17;;;5.70;;
30519;SDS011;17300;50.374;8.006;2022-07-23T02:46:16;6.53;;;6.03;;
30519;SDS011;17300;50.374;8.006;2022-07-23T02:48:44;6.17;;;5.57;;
30519;SDS011;17300;50.374;8.006;2022-07-23T02:51:10;6.53;;;6.03;;
30519;SDS011;17300;50.374;8.006;2022-07-23T02:53:37;6.37;;;5.87;;
30519;SDS011;17300;50.374;8.006;2022-07-23T02:56:04;6.53;;;6.03;;
30519;SDS011;17300;50.374;8.006;2022-07-23T02:58:31;6.90;;;6.30;;
30519;SDS011;17300;50.374;8.006;2022-07-23T03:00:57;6.60;;;6.10;;
30519;SDS011;17300;50.374;8.006;2022-07-23T03:03:24;6.33;;;5.83;;
30519;SDS011;17300;50.374;8.006;2022-07-23T03:05:52;6.03;;;5.53;;
30519;SDS011;17300;50.374;8.006;2022-07-23T03:08:19;6.70;;;6.10;;
30519;SDS011;17300;50.374;8.006;2022-07-23T03:10:46;6.90;;;6.37;;
30519;SDS011;17300;50.374;8.006;2022-07-23T03:13:13;6.67;;;6.13;;
30519;SDS011;17300;50.374;8.006;2022-07-23T03:15:39;6.60;;;6.10;;
30519;SDS011;17300;50.374;8.006;2022-07-23T03:18:06;7.00;;;6.40;;
30519;SDS011;17300;50.374;8.006;2022-07-23T03:20:33;6.87;;;6.37;;
30519;SDS011;17300;50.374;8.006;2022-07-23T03:23:01;7.07;;;6.47;;
30519;SDS011;17300;50.374;8.006;2022-07-23T03:25:28;6.50;;;5.90;;
30519;SDS011;17300;50.374;8.006;2022-07-23T03:27:54;7.00;;;6.40;;
30519;SDS011;17300;50.374;8.006;2022-07-23T03:30:21;7.50;;;6.90;;
30519;SDS011;17300;50.374;8.006;2022-07-23T03:32:48;6.97;;;6.37;;
30519;SDS011;17300;50.374;8.006;2022-07-23T03:35:15;6.97;;;6.37;;
30519;SDS011;17300;50.374;8.006;2022-07-23T03:37:41;7.13;;;6.43;;
30519;SDS011;17300;50.374;8.006;2022-07-23T03:40:10;6.70;;;6.10;;
30519;SDS011;17300;50.374;8.006;2022-07-23T03:42:37;6.60;;;6.10;;
30519;SDS011;17300;50.374;8.006;2022-07-23T03:45:06;7.27;;;6.67;;
30519;SDS011;17300;50.374;8.006;2022-07-23T03:47:33;7.50;;;6.83;;
30519;SDS011;17300;50.374;8.006;2022-07-23T03:50:00;6.93;;;6.43;;
30519;SDS011;17300;50.374;8.006;2022-07-23T03:52:27;7.07;;;6.47;;
30519;SDS011;17300;50.374;8.006;2022-07-23T03:54:53;6.80;;;6.30;;
30519;SDS011;17300;50.374;8.006;2022-07-23T03:57:21;6.97;;;6.40;;
30519;SDS011;17300;50.374;8.006;2022-07-23T03:59:48;7.17;;;6.57;;
30519;SDS011;17300;50.374;8.006;2022-07-23T04:02:15;7.07;;;6.57;;
30519;SDS011;17300;50.374;8.006;2022-07-23T04:04:42;6.70;;;6.20;;
30519;SDS011;17300;50.374;8.006;2022-07-23T04:07:09;6.87;;;6.37;;
30519;SDS011;17300;50.374;8.006;2022-07-23T04:09:35;6.53;;;6.00;;
30519;SDS011;17300;50.374;8.006;2022-07-23T04:12:02;7.13;;;6.43;;
30519;SDS011;17300;50.374;8.006;2022-07-23T04:14:31;6.67;;;6.10;;
30519;SDS011;17300;50.374;8.006;2022-07-23T04:16:58;7.00;;;6.40;;
30519;SDS011;17300;50.374;8.006;2022-07-23T04:19:24;6.97;;;6.40;;
30519;SDS011;17300;50.374;8.006;2022-07-23T04:21:51;6.93;;;6.37;;
30519;SDS011;17300;50.374;8.006;2022-07-23T04:24:18;6.53;;;6.03;;
30519;SDS011;17300;50.374;8.006;2022-07-23T04:26:45;6.67;;;6.13;;
30519;SDS011;17300;50.374;8.006;2022-07-23T04:29:12;6.90;;;6.30;;
30519;SDS011;17300;50.374;8.006;2022-07-23T04:31:40;6.67;;;6.07;;
30519;SDS011;17300;50.374;8.006;2022-07-23T04:34:07;6.70;;;6.20;;
30519;SDS011;17300;50.374;8.006;2022-07-23T04:36:33;6.73;;;6.23;;
30519;SDS011;17300;50.374;8.006;2022-07-23T04:39:00;7.13;;;6.50;;
30519;SDS011;17300;50.374;8.006;2022-07-23T04:41:27;6.77;;;6.17;;
30519;SDS011;17300;50.374;8.006;2022-07-23T04:43:54;6.93;;;6.33;;
30519;SDS011;17300;50.374;8.006;2022-07-23T04:46:20;7.00;;;6.40;;
30519;SDS011;17300;50.374;8.006;2022-07-23T04:48:48;7.40;;;6.77;;
30519;SDS011;17300;50.374;8.006;2022-07-23T04:51:15;7.77;;;7.07;;
30519;SDS011;17300;50.374;8.006;2022-07-23T04:53:42;7.10;;;6.60;;
30519;SDS011;17300;50.374;8.006;2022-07-23T04:56:09;7.07;;;6.57;;
30519;SDS011;17300;50.374;8.006;2022-07-23T04:58:36;6.80;;;6.30;;
30519;SDS011;17300;50.374;8.006;2022-07-23T05:01:02;6.90;;;6.30;;
30519;SDS011;17300;50.374;8.006;2022-07-23T05:03:29;6.93;;;6.33;;
30519;SDS011;17300;50.374;8.006;2022-07-23T05:05:57;6.87;;;6.27;;
30519;SDS011;17300;50.374;8.006;2022-07-23T05:08:24;6.83;;;6.30;;
30519;SDS011;17300;50.374;8.006;2022-07-23T05:10:51;7.07;;;6.47;;
30519;SDS011;17300;50.374;8.006;2022-07-23T05:13:18;7.07;;;6.47;;
30519;SDS011;17300;50.374;8.006;2022-07-23T05:15:45;6.83;;;6.33;;
30519;SDS011;17300;50.374;8.006;2022-07-23T05:18:12;7.00;;;6.40;;
30519;SDS011;17300;50.374;8.006;2022-07-23T05:20:39;6.50;;;6.00;;
30519;SDS011;17300;50.374;8.006;2022-07-23T05:23:07;6.67;;;6.17;;
30519;SDS011;17300;50.374;8.006;2022-07-23T05:25:35;7.20;;;6.63;;
30519;SDS011;17300;50.374;8.006;2022-07-23T05:28:02;6.97;;;6.37;;
30519;SDS011;17300;50.374;8.006;2022-07-23T05:30:29;6.97;;;6.37;;
30519;SDS011;17300;50.374;8.006;2022-07-23T05:32:55;7.17;;;6.57;;
30519;SDS011;17300;50.374;8.006;2022-07-23T05:35:22;6.73;;;6.20;;
30519;SDS011;17300;50.374;8.006;2022-07-23T05:37:49;6.67;;;6.17;;
30519;SDS011;17300;50.374;8.006;2022-07-23T05:40:19;7.20;;;6.57;;
30519;SDS011;17300;50.374;8.006;2022-07-23T05:42:45;7.03;;;6.43;;
30519;SDS011;17300;50.374;8.006;2022-07-23T05:45:12;7.17;;;6.57;;
30519;SDS011;17300;50.374;8.006;2022-07-23T05:47:42;6.17;;;5.63;;
30519;SDS011;17300;50.374;8.006;2022-07-23T05:50:10;6.90;;;6.23;;
30519;SDS011;17300;50.374;8.006;2022-07-23T05:52:38;10.63;;;7.15;;
30519;SDS011;17300;50.374;8.006;2022-07-23T05:55:05;7.03;;;6.40;;
30519;SDS011;17300;50.374;8.006;2022-07-23T05:57:34;6.80;;;6.22;;
30519;SDS011;17300;50.374;8.006;2022-07-23T06:00:01;6.45;;;5.95;;
30519;SDS011;17300;50.374;8.006;2022-07-23T06:02:30;7.35;;;6.75;;
30519;SDS011;17300;50.374;8.006;2022-07-23T06:04:57;7.72;;;7.13;;
30519;SDS011;17300;50.374;8.006;2022-07-23T06:07:24;6.85;;;6.22;;
30519;SDS011;17300;50.374;8.006;2022-07-23T06:09:50;7.85;;;6.30;;
30519;SDS011;17300;50.374;8.006;2022-07-23T06:12:17;8.45;;;5.70;;
30519;SDS011;17300;50.374;8.006;2022-07-23T06:14:45;6.03;;;5.60;;
30519;SDS011;17300;50.374;8.006;2022-07-23T06:17:14;5.88;;;5.47;;
30519;SDS011;17300;50.374;8.006;2022-07-23T06:19:41;5.47;;;5.05;;
30519;SDS011;17300;50.374;8.006;2022-07-23T06:22:08;5.28;;;4.82;;
30519;SDS011;17300;50.374;8.006;2022-07-23T06:24:35;5.20;;;4.75;;
30519;SDS011;17300;50.374;8.006;2022-07-23T06:27:02;14.63;;;6.13;;
30519;SDS011;17300;50.374;8.006;2022-07-23T06:29:29;5.22;;;4.72;;
30519;SDS011;17300;50.374;8.006;2022-07-23T06:31:57;4.82;;;4.50;;
30519;SDS011;17300;50.374;8.006;2022-07-23T06:36:59;5.30;;;4.65;;
30519;SDS011;17300;50.374;8.006;2022-07-23T06:39:26;5.20;;;4.80;;
30519;SDS011;17300;50.374;8.006;2022-07-23T06:41:54;11.27;;;6.07;;
30519;SDS011;17300;50.374;8.006;2022-07-23T06:44:20;4.97;;;4.57;;
30519;SDS011;17300;50.374;8.006;2022-07-23T06:46:47;4.43;;;4.13;;
30519;SDS011;17300;50.374;8.006;2022-07-23T06:49:15;3.95;;;3.65;;
30519;SDS011;17300;50.374;8.006;2022-07-23T06:51:42;4.00;;;3.70;;
30519;SDS011;17300;50.374;8.006;2022-07-23T06:54:09;3.85;;;3.55;;
30519;SDS011;17300;50.374;8.006;2022-07-23T06:56:35;4.10;;;3.80;;
30519;SDS011;17300;50.374;8.006;2022-07-23T06:59:02;3.80;;;3.50;;
30519;SDS011;17300;50.374;8.006;2022-07-23T07:01:29;5.20;;;4.80;;
30519;SDS011;17300;50.374;8.006;2022-07-23T07:03:56;3.92;;;3.67;;
30519;SDS011;17300;50.374;8.006;2022-07-23T07:06:24;4.28;;;3.70;;
30519;SDS011;17300;50.374;8.006;2022-07-23T07:08:50;4.00;;;3.70;;
30519;SDS011;17300;50.374;8.006;2022-07-23T07:11:18;3.85;;;3.65;;
30519;SDS011;17300;50.374;8.006;2022-07-23T07:13:48;3.47;;;3.22;;
30519;SDS011;17300;50.374;8.006;2022-07-23T07:16:15;3.38;;;3.17;;
30519;SDS011;17300;50.374;8.006;2022-07-23T07:18:42;3.95;;;3.65;;
30519;SDS011;17300;50.374;8.006;2022-07-23T07:21:09;3.75;;;3.45;;
30519;SDS011;17300;50.374;8.006;2022-07-23T07:23:37;3.67;;;3.38;;
30519;SDS011;17300;50.374;8.006;2022-07-23T07:26:03;3.63;;;3.33;;
30519;SDS011;17300;50.374;8.006;2022-07-23T07:28:30;3.80;;;3.15;;
30519;SDS011;17300;50.374;8.006;2022-07-23T07:30:57;4.00;;;3.67;;
30519;SDS011;17300;50.374;8.006;2022-07-23T07:33:24;3.47;;;3.20;;
30519;SDS011;17300;50.374;8.006;2022-07-23T07:35:51;3.00;;;2.80;;
30519;SDS011;17300;50.374;8.006;2022-07-23T07:38:24;2.97;;;2.67;;
30519;SDS011;17300;50.374;8.006;2022-07-23T07:40:57;2.65;;;2.55;;
30519;SDS011;17300;50.374;8.006;2022-07-23T07:43:24;2.70;;;2.50;;
30519;SDS011;17300;50.374;8.006;2022-07-23T07:45:50;2.92;;;2.72;;
30519;SDS011;17300;50.374;8.006;2022-07-23T07:48:21;4.25;;;3.97;;
30519;SDS011;17300;50.374;8.006;2022-07-23T07:50:48;3.38;;;3.17;;
30519;SDS011;17300;50.374;8.006;2022-07-23T07:53:14;3.10;;;2.90;;
30519;SDS011;17300;50.374;8.006;2022-07-23T07:55:41;2.80;;;2.60;;
30519;SDS011;17300;50.374;8.006;2022-07-23T07:58:09;2.60;;;2.40;;
30519;SDS011;17300;50.374;8.006;2022-07-23T08:00:36;2.58;;;2.35;;
30519;SDS011;17300;50.374;8.006;2022-07-23T08:03:03;2.80;;;2.60;;
30519;SDS011;17300;50.374;8.006;2022-07-23T08:05:30;2.55;;;2.33;;
30519;SDS011;17300;50.374;8.006;2022-07-23T08:07:58;2.72;;;2.53;;
30519;SDS011;17300;50.374;8.006;2022-07-23T08:10:25;2.70;;;2.40;;
30519;SDS011;17300;50.374;8.006;2022-07-23T08:12:53;2.70;;;2.50;;
30519;SDS011;17300;50.374;8.006;2022-07-23T08:15:23;7.15;;;2.53;;
30519;SDS011;17300;50.374;8.006;2022-07-23T08:20:55;2.83;;;2.63;;
30519;SDS011;17300;50.374;8.006;2022-07-23T08:23:22;3.10;;;2.80;;
30519;SDS011;17300;50.374;8.006;2022-07-23T08:25:49;2.85;;;2.65;;
30519;SDS011;17300;50.374;8.006;2022-07-23T08:28:17;2.58;;;2.40;;
30519;SDS011;17300;50.374;8.006;2022-07-23T08:30:55;2.60;;;2.40;;
30519;SDS011;17300;50.374;8.006;2022-07-23T08:33:21;3.17;;;2.90;;
30519;SDS011;17300;50.374;8.006;2022-07-23T08:35:49;2.70;;;2.50;;
30519;SDS011;17300;50.374;8.006;2022-07-23T08:38:19;2.70;;;2.60;;
30519;SDS011;17300;50.374;8.006;2022-07-23T08:40:47;2.78;;;2.58;;
30519;SDS011;17300;50.374;8.006;2022-07-23T08:43:16;2.65;;;2.45;;
30519;SDS011;17300;50.374;8.006;2022-07-23T08:45:44;7.57;;;5.50;;
30519;SDS011;17300;50.374;8.006;2022-07-23T08:48:14;3.95;;;3.65;;
30519;SDS011;17300;50.374;8.006;2022-07-23T08:50:43;3.85;;;3.22;;
30519;SDS011;17300;50.374;8.006;2022-07-23T08:53:11;3.03;;;2.83;;
30519;SDS011;17300;50.374;8.006;2022-07-23T08:55:38;2.78;;;2.55;;
30519;SDS011;17300;50.374;8.006;2022-07-23T08:58:05;2.70;;;2.50;;
30519;SDS011;17300;50.374;8.006;2022-07-23T09:00:32;3.30;;;3.00;;
30519;SDS011;17300;50.374;8.006;2022-07-23T09:02:59;2.85;;;2.65;;
30519;SDS011;17300;50.374;8.006;2022-07-23T09:05:27;3.15;;;2.95;;
30519;SDS011;17300;50.374;8.006;2022-07-23T09:08:04;2.90;;;2.70;;
30519;SDS011;17300;50.374;8.006;2022-07-23T09:10:44;2.95;;;2.75;;
30519;SDS011;17300;50.374;8.006;2022-07-23T09:13:26;3.17;;;2.97;;
30519;SDS011;17300;50.374;8.006;2022-07-23T09:15:55;3.30;;;3.00;;
30519;SDS011;17300;50.374;8.006;2022-07-23T09:18:33;3.15;;;2.88;;
30519;SDS011;17300;50.374;8.006;2022-07-23T09:21:12;3.00;;;2.72;;
30519;SDS011;17300;50.374;8.006;2022-07-23T09:23:44;4.32;;;3.35;;
30519;SDS011;17300;50.374;8.006;2022-07-23T09:26:19;4.28;;;3.20;;
30519;SDS011;17300;50.374;8.006;2022-07-23T09:28:58;3.28;;;3.08;;
30519;SDS011;17300;50.374;8.006;2022-07-23T09:31:30;3.40;;;3.17;;
30519;SDS011;17300;50.374;8.006;2022-07-23T09:34:06;3.60;;;3.40;;
30519;SDS011;17300;50.374;8.006;2022-07-23T09:36:34;3.33;;;3.03;;
30519;SDS011;17300;50.374;8.006;2022-07-23T09:41:34;3.50;;;3.20;;
30519;SDS011;17300;50.374;8.006;2022-07-23T09:44:10;3.05;;;2.85;;
30519;SDS011;17300;50.374;8.006;2022-07-23T09:46:39;3.35;;;3.05;;
30519;SDS011;17300;50.374;8.006;2022-07-23T09:49:09;3.20;;;3.00;;
30519;SDS011;17300;50.374;8.006;2022-07-23T09:51:44;3.30;;;3.10;;
30519;SDS011;17300;50.374;8.006;2022-07-23T09:57:06;3.30;;;3.10;;
30519;SDS011;17300;50.374;8.006;2022-07-23T09:59:39;3.17;;;2.97;;
30519;SDS011;17300;50.374;8.006;2022-07-23T10:02:07;3.45;;;3.15;;
30519;SDS011;17300;50.374;8.006;2022-07-23T10:04:34;3.58;;;3.28;;
30519;SDS011;17300;50.374;8.006;2022-07-23T10:07:04;3.22;;;3.03;;
30519;SDS011;17300;50.374;8.006;2022-07-23T10:09:34;3.42;;;3.17;;
30519;SDS011;17300;50.374;8.006;2022-07-23T10:12:02;3.25;;;3.05;;
30519;SDS011;17300;50.374;8.006;2022-07-23T10:14:44;3.50;;;3.10;;
30519;SDS011;17300;50.374;8.006;2022-07-23T10:17:10;3.95;;;3.35;;
30519;SDS011;17300;50.374;8.006;2022-07-23T10:19:37;3.42;;;3.03;;
30519;SDS011;17300;50.374;8.006;2022-07-23T10:22:06;3.50;;;3.20;;
30519;SDS011;17300;50.374;8.006;2022-07-23T10:24:45;3.05;;;2.85;;
30519;SDS011;17300;50.374;8.006;2022-07-23T10:27:39;3.20;;;3.00;;
30519;SDS011;17300;50.374;8.006;2022-07-23T10:30:20;3.38;;;3.08;;
30519;SDS011;17300;50.374;8.006;2022-07-23T10:32:58;3.33;;;3.13;;
30519;SDS011;17300;50.374;8.006;2022-07-23T10:35:39;3.30;;;3.08;;
30519;SDS011;17300;50.374;8.006;2022-07-23T10:38:21;3.35;;;3.05;;
30519;SDS011;17300;50.374;8.006;2022-07-23T10:40:56;3.20;;;3.00;;
30519;SDS011;17300;50.374;8.006;2022-07-23T10:43:24;3.40;;;3.00;;
30519;SDS011;17300;50.374;8.006;2022-07-23T10:45:51;3.50;;;3.20;;
30519;SDS011;17300;50.374;8.006;2022-07-23T10:48:19;3.00;;;2.80;;
30519;SDS011;17300;50.374;8.006;2022-07-23T10:51:06;3.10;;;2.90;;
30519;SDS011;17300;50.374;8.006;2022-07-23T10:53:54;3.20;;;3.00;;
30519;SDS011;17300;50.374;8.006;2022-07-23T10:59:17;3.70;;;2.83;;
30519;SDS011;17300;50.374;8.006;2022-07-23T11:01:50;3.22;;;3.00;;
30519;SDS011;17300;50.374;8.006;2022-07-23T11:04:16;3.10;;;2.90;;
30519;SDS011;17300;50.374;8.006;2022-07-23T11:09:41;3.05;;;2.85;;
30519;SDS011;17300;50.374;8.006;2022-07-23T11:15:03;2.67;;;2.58;;
30519;SDS011;17300;50.374;8.006;2022-07-23T11:17:34;3.67;;;2.83;;
30519;SDS011;17300;50.374;8.006;2022-07-23T11:22:56;6.25;;;2.67;;
30519;SDS011;17300;50.374;8.006;2022-07-23T11:25:30;3.00;;;2.80;;
30519;SDS011;17300;50.374;8.006;2022-07-23T11:28:09;2.67;;;2.47;;
30519;SDS011;17300;50.374;8.006;2022-07-23T11:30:43;2.50;;;2.40;;
30519;SDS011;17300;50.374;8.006;2022-07-23T11:33:19;2.70;;;2.55;;
30519;SDS011;17300;50.374;8.006;2022-07-23T11:35:47;2.60;;;2.40;;
30519;SDS011;17300;50.374;8.006;2022-07-23T11:38:25;2.65;;;2.47;;
30519;SDS011;17300;50.374;8.006;2022-07-23T11:40:57;2.20;;;2.10;;
30519;SDS011;17300;50.374;8.006;2022-07-23T11:43:38;2.85;;;2.47;;
30519;SDS011;17300;50.374;8.006;2022-07-23T11:46:09;2.58;;;2.47;;
30519;SDS011;17300;50.374;8.006;2022-07-23T11:48:41;2.60;;;2.40;;
30519;SDS011;17300;50.374;8.006;2022-07-23T11:51:08;2.63;;;2.45;;
30519;SDS011;17300;50.374;8.006;2022-07-23T11:53:34;2.63;;;2.40;;
30519;SDS011;17300;50.374;8.006;2022-07-23T11:56:06;2.78;;;2.58;;
30519;SDS011;17300;50.374;8.006;2022-07-23T11:58:35;4.15;;;2.40;;
30519;SDS011;17300;50.374;8.006;2022-07-23T12:01:02;2.80;;;2.60;;
30519;SDS011;17300;50.374;8.006;2022-07-23T12:03:28;2.60;;;2.40;;
30519;SDS011;17300;50.374;8.006;2022-07-23T12:05:56;2.58;;;2.38;;
30519;SDS011;17300;50.374;8.006;2022-07-23T12:08:23;2.88;;;2.67;;
30519;SDS011;17300;50.374;8.006;2022-07-23T12:10:50;2.67;;;2.50;;
30519;SDS011;17300;50.374;8.006;2022-07-23T12:13:19;2.72;;;2.53;;
30519;SDS011;17300;50.374;8.006;2022-07-23T12:15:48;2.60;;;2.40;;
30519;SDS011;17300;50.374;8.006;2022-07-23T12:18:17;2.60;;;2.40;;
30519;SDS011;17300;50.374;8.006;2022-07-23T12:20:47;2.58;;;2.38;;
30519;SDS011;17300;50.374;8.006;2022-07-23T12:23:16;2.47;;;2.28;;
30519;SDS011;17300;50.374;8.006;2022-07-23T12:25:44;2.60;;;2.40;;
30519;SDS011;17300;50.374;8.006;2022-07-23T12:28:26;2.70;;;2.50;;
30519;SDS011;17300;50.374;8.006;2022-07-23T12:30:55;2.67;;;2.58;;
30519;SDS011;17300;50.374;8.006;2022-07-23T12:33:23;3.08;;;2.60;;
30519;SDS011;17300;50.374;8.006;2022-07-23T12:35:51;2.90;;;2.58;;
30519;SDS011;17300;50.374;8.006;2022-07-23T12:38:20;2.58;;;2.38;;
30519;SDS011;17300;50.374;8.006;2022-07-23T12:40:49;2.92;;;2.67;;
30519;SDS011;17300;50.374;8.006;2022-07-23T12:43:19;2.80;;;2.60;;
30519;SDS011;17300;50.374;8.006;2022-07-23T12:45:49;3.40;;;3.10;;
30519;SDS011;17300;50.374;8.006;2022-07-23T12:48:18;2.83;;;2.63;;
30519;SDS011;17300;50.374;8.006;2022-07-23T12:50:49;3.10;;;2.63;;
30519;SDS011;17300;50.374;8.006;2022-07-23T12:53:21;2.88;;;2.67;;
30519;SDS011;17300;50.374;8.006;2022-07-23T12:55:50;2.75;;;2.55;;
30519;SDS011;17300;50.374;8.006;2022-07-23T12:58:22;2.85;;;2.65;;
30519;SDS011;17300;50.374;8.006;2022-07-23T13:00:52;2.83;;;2.63;;
30519;SDS011;17300;50.374;8.006;2022-07-23T13:03:21;2.80;;;2.60;;
30519;SDS011;17300;50.374;8.006;2022-07-23T13:05:49;2.75;;;2.55;;
30519;SDS011;17300;50.374;8.006;2022-07-23T13:08:16;3.05;;;2.78;;
30519;SDS011;17300;50.374;8.006;2022-07-23T13:10:43;3.20;;;3.00;;
30519;SDS011;17300;50.374;8.006;2022-07-23T13:13:11;3.17;;;2.75;;
30519;SDS011;17300;50.374;8.006;2022-07-23T13:15:39;3.00;;;2.80;;
30519;SDS011;17300;50.374;8.006;2022-07-23T13:18:07;2.65;;;2.45;;
30519;SDS011;17300;50.374;8.006;2022-07-23T13:20:34;3.80;;;2.45;;
30519;SDS011;17300;50.374;8.006;2022-07-23T13:23:01;3.08;;;2.60;;
30519;SDS011;17300;50.374;8.006;2022-07-23T13:25:28;2.80;;;2.60;;
30519;SDS011;17300;50.374;8.006;2022-07-23T13:27:55;2.80;;;2.60;;
30519;SDS011;17300;50.374;8.006;2022-07-23T13:30:21;2.55;;;2.35;;
30519;SDS011;17300;50.374;8.006;2022-07-23T13:32:48;2.70;;;2.50;;
30519;SDS011;17300;50.374;8.006;2022-07-23T13:35:16;2.70;;;2.50;;
30519;SDS011;17300;50.374;8.006;2022-07-23T13:37:43;2.70;;;2.50;;
30519;SDS011;17300;50.374;8.006;2022-07-23T13:40:10;2.75;;;2.58;;
30519;SDS011;17300;50.374;8.006;2022-07-23T13:42:37;2.70;;;2.50;;
30519;SDS011;17300;50.374;8.006;2022-07-23T13:45:04;2.60;;;2.40;;
30519;SDS011;17300;50.374;8.006;2022-07-23T13:47:32;2.85;;;2.65;;
30519;SDS011;17300;50.374;8.006;2022-07-23T13:49:59;2.67;;;2.47;;
30519;SDS011;17300;50.374;8.006;2022-07-23T13:52:27;2.83;;;2.60;;
30519;SDS011;17300;50.374;8.006;2022-07-23T13:54:54;2.60;;;2.40;;
30519;SDS011;17300;50.374;8.006;2022-07-23T13:57:21;2.60;;;2.40;;
30519;SDS011;17300;50.374;8.006;2022-07-23T13:59:48;2.83;;;2.63;;
30519;SDS011;17300;50.374;8.006;2022-07-23T14:02:15;2.90;;;2.70;;
30519;SDS011;17300;50.374;8.006;2022-07-23T14:04:43;2.65;;;2.45;;
30519;SDS011;17300;50.374;8.006;2022-07-23T14:07:10;2.55;;;2.45;;
30519;SDS011;17300;50.374;8.006;2022-07-23T14:09:38;2.55;;;2.45;;
30519;SDS011;17300;50.374;8.006;2022-07-23T14:12:05;2.70;;;2.50;;
30519;SDS011;17300;50.374;8.006;2022-07-23T14:14:33;2.40;;;2.30;;
30519;SDS011;17300;50.374;8.006;2022-07-23T14:16:59;2.30;;;2.15;;
30519;SDS011;17300;50.374;8.006;2022-07-23T14:19:26;2.50;;;2.30;;
30519;SDS011;17300;50.374;8.006;2022-07-23T14:21:53;3.90;;;2.65;;
30519;SDS011;17300;50.374;8.006;2022-07-23T14:24:20;2.80;;;2.60;;
30519;SDS011;17300;50.374;8.006;2022-07-23T14:26:48;3.10;;;2.67;;
30519;SDS011;17300;50.374;8.006;2022-07-23T14:29:15;2.47;;;2.30;;
30519;SDS011;17300;50.374;8.006;2022-07-23T14:31:42;2.72;;;2.53;;
30519;SDS011;17300;50.374;8.006;2022-07-23T14:34:08;2.85;;;2.65;;
30519;SDS011;17300;50.374;8.006;2022-07-23T14:36:36;2.70;;;2.47;;
30519;SDS011;17300;50.374;8.006;2022-07-23T14:39:03;2.40;;;2.30;;
30519;SDS011;17300;50.374;8.006;2022-07-23T14:41:30;2.47;;;2.28;;
30519;SDS011;17300;50.374;8.006;2022-07-23T14:43:58;2.58;;;2.38;;
30519;SDS011;17300;50.374;8.006;2022-07-23T14:46:25;2.30;;;2.20;;
30519;SDS011;17300;50.374;8.006;2022-07-23T14:48:53;2.40;;;2.20;;
30519;SDS011;17300;50.374;8.006;2022-07-23T14:51:19;2.42;;;2.22;;
30519;SDS011;17300;50.374;8.006;2022-07-23T14:53:46;2.70;;;2.50;;
30519;SDS011;17300;50.374;8.006;2022-07-23T14:56:13;2.60;;;2.40;;
30519;SDS011;17300;50.374;8.006;2022-07-23T14:58:40;2.20;;;2.10;;
30519;SDS011;17300;50.374;8.006;2022-07-23T15:01:08;2.42;;;2.22;;
30519;SDS011;17300;50.374;8.006;2022-07-23T15:03:35;2.63;;;2.42;;
30519;SDS011;17300;50.374;8.006;2022-07-23T15:06:02;2.70;;;2.50;;
30519;SDS011;17300;50.374;8.006;2022-07-23T15:08:29;2.53;;;2.33;;
30519;SDS011;17300;50.374;8.006;2022-07-23T15:10:56;2.65;;;2.45;;
30519;SDS011;17300;50.374;8.006;2022-07-23T15:13:23;2.67;;;2.47;;
30519;SDS011;17300;50.374;8.006;2022-07-23T15:15:50;2.60;;;2.40;;
30519;SDS011;17300;50.374;8.006;2022-07-23T15:18:18;2.55;;;2.35;;